sensor_id;sensor_type;location;lat;lon;timestamp;temperature;humidity
4749;DHT22;2388;53.582;9.962;2022-12-28T00:01:08;6.30;99.90
4749;DHT22;2388;53.582;9.962;2022-12-28T00:03:34;6.20;99.90
4749;DHT22;2388;53.582;9.962;2022-12-28T00:06:00;6.20;99.90
4749;DHT22;2388;53.582;9.962;2022-12-28T00:08:25;6.20;99.90
4749;DHT22;2388;53.582;9.962;2022-12-28T00:10:51;6.20;99.90
4749;DHT22;2388;53.582;9.962;2022-12-28T00:13:16;6.20;99.90
4749;DHT22;2388;53.582;9.962;2022-12-28T00:15:41;6.20;99.90
4749;DHT22;2388;53.582;9.962;2022-12-28T00:18:07;6.20;99.90
4749;DHT22;2388;53.582;9.962;2022-12-28T00:20:32;6.20;99.90
4749;DHT22;2388;53.582;9.962;2022-12-28T00:22:58;6.20;99.90
4749;DHT22;2388;53.582;9.962;2022-12-28T00:25:23;6.20;99.90
4749;DHT22;2388;53.582;9.962;2022-12-28T00:27:49;6.20;99.90
4749;DHT22;2388;53.582;9.962;2022-12-28T00:30:14;6.20;99.90
4749;DHT22;2388;53.582;9.962;2022-12-28T00:32:40;6.20;99.90
4749;DHT22;2388;53.582;9.962;2022-12-28T00:35:05;6.30;99.90
4749;DHT22;2388;53.582;9.962;2022-12-28T00:37:31;6.30;99.90
4749;DHT22;2388;53.582;9.962;2022-12-28T00:39:57;6.20;99.90
4749;DHT22;2388;53.582;9.962;2022-12-28T00:42:23;6.30;99.90
4749;DHT22;2388;53.582;9.962;2022-12-28T00:44:48;6.30;99.90
4749;DHT22;2388;53.582;9.962;2022-12-28T00:47:14;6.20;99.90
4749;DHT22;2388;53.582;9.962;2022-12-28T00:49:39;6.20;99.90
4749;DHT22;2388;53.582;9.962;2022-12-28T00:52:05;6.20;99.90
4749;DHT22;2388;53.582;9.962;2022-12-28T00:54:30;6.20;99.90
4749;DHT22;2388;53.582;9.962;2022-12-28T00:56:56;6.20;99.90
4749;DHT22;2388;53.582;9.962;2022-12-28T00:59:21;6.20;99.90
4749;DHT22;2388;53.582;9.962;2022-12-28T01:01:47;6.20;99.90
4749;DHT22;2388;53.582;9.962;2022-12-28T01:04:12;6.20;99.90
4749;DHT22;2388;53.582;9.962;2022-12-28T01:06:38;6.10;99.90
4749;DHT22;2388;53.582;9.962;2022-12-28T01:09:04;6.10;99.90
4749;DHT22;2388;53.582;9.962;2022-12-28T01:11:30;6.10;99.90
4749;DHT22;2388;53.582;9.962;2022-12-28T01:13:57;6.20;99.90
4749;DHT22;2388;53.582;9.962;2022-12-28T01:16:29;6.20;99.90
4749;DHT22;2388;53.582;9.962;2022-12-28T01:18:57;6.10;99.90
4749;DHT22;2388;53.582;9.962;2022-12-28T01:21:26;6.10;99.90
4749;DHT22;2388;53.582;9.962;2022-12-28T01:23:54;6.10;99.90
4749;DHT22;2388;53.582;9.962;2022-12-28T01:26:20;6.10;99.90
4749;DHT22;2388;53.582;9.962;2022-12-28T01:28:45;6.10;99.90
4749;DHT22;2388;53.582;9.962;2022-12-28T01:31:13;6.10;99.90
4749;DHT22;2388;53.582;9.962;2022-12-28T01:33:40;6.10;99.90
4749;DHT22;2388;53.582;9.962;2022-12-28T01:38:37;6.10;99.90
4749;DHT22;2388;53.582;9.962;2022-12-28T01:41:06;6.10;99.90
4749;DHT22;2388;53.582;9.962;2022-12-28T01:46:21;6.10;99.90
4749;DHT22;2388;53.582;9.962;2022-12-28T01:48:59;6.10;99.90
4749;DHT22;2388;53.582;9.962;2022-12-28T01:51:29;6.10;99.90
4749;DHT22;2388;53.582;9.962;2022-12-28T01:53:56;6.00;99.90
4749;DHT22;2388;53.582;9.962;2022-12-28T01:56:23;6.00;99.90
4749;DHT22;2388;53.582;9.962;2022-12-28T01:58:50;6.00;99.90
4749;DHT22;2388;53.582;9.962;2022-12-28T02:01:15;6.00;99.90
4749;DHT22;2388;53.582;9.962;2022-12-28T02:03:42;6.10;99.90
4749;DHT22;2388;53.582;9.962;2022-12-28T02:06:10;6.10;99.90
4749;DHT22;2388;53.582;9.962;2022-12-28T02:09:01;6.10;99.90
4749;DHT22;2388;53.582;9.962;2022-12-28T02:11:28;6.10;99.90
4749;DHT22;2388;53.582;9.962;2022-12-28T02:13:54;6.10;99.90
4749;DHT22;2388;53.582;9.962;2022-12-28T02:16:20;6.10;99.90
4749;DHT22;2388;53.582;9.962;2022-12-28T02:18:46;6.10;99.90
4749;DHT22;2388;53.582;9.962;2022-12-28T02:21:40;6.10;99.90
4749;DHT22;2388;53.582;9.962;2022-12-28T02:27:31;6.10;99.90
4749;DHT22;2388;53.582;9.962;2022-12-28T02:30:05;6.10;99.90
4749;DHT22;2388;53.582;9.962;2022-12-28T02:35:53;6.00;99.90
4749;DHT22;2388;53.582;9.962;2022-12-28T02:38:36;6.00;99.90
4749;DHT22;2388;53.582;9.962;2022-12-28T02:41:14;6.00;99.90
4749;DHT22;2388;53.582;9.962;2022-12-28T02:43:40;6.00;99.90
4749;DHT22;2388;53.582;9.962;2022-12-28T02:46:24;5.90;99.90
4749;DHT22;2388;53.582;9.962;2022-12-28T02:49:20;5.90;99.90
4749;DHT22;2388;53.582;9.962;2022-12-28T02:58:21;5.80;99.90
4749;DHT22;2388;53.582;9.962;2022-12-28T03:09:49;5.70;99.90
4749;DHT22;2388;53.582;9.962;2022-12-28T03:12:24;5.70;99.90
4749;DHT22;2388;53.582;9.962;2022-12-28T03:14:56;5.60;99.90
4749;DHT22;2388;53.582;9.962;2022-12-28T03:17:25;5.60;99.90
4749;DHT22;2388;53.582;9.962;2022-12-28T03:20:24;5.60;99.90
4749;DHT22;2388;53.582;9.962;2022-12-28T03:23:12;5.60;99.90
4749;DHT22;2388;53.582;9.962;2022-12-28T03:25:58;5.60;99.90
4749;DHT22;2388;53.582;9.962;2022-12-28T03:28:44;5.60;99.90
4749;DHT22;2388;53.582;9.962;2022-12-28T03:31:29;5.60;99.90
4749;DHT22;2388;53.582;9.962;2022-12-28T03:33:56;5.60;99.90
4749;DHT22;2388;53.582;9.962;2022-12-28T03:45:27;5.50;99.90
4749;DHT22;2388;53.582;9.962;2022-12-28T03:47:51;5.50;99.90
4749;DHT22;2388;53.582;9.962;2022-12-28T03:50:19;5.50;99.90
4749;DHT22;2388;53.582;9.962;2022-12-28T03:52:45;5.50;99.90
4749;DHT22;2388;53.582;9.962;2022-12-28T03:55:14;5.50;99.90
4749;DHT22;2388;53.582;9.962;2022-12-28T03:57:40;5.40;99.90
4749;DHT22;2388;53.582;9.962;2022-12-28T04:00:07;5.40;99.90
4749;DHT22;2388;53.582;9.962;2022-12-28T04:02:33;5.40;99.90
4749;DHT22;2388;53.582;9.962;2022-12-28T04:04:59;5.40;99.90
4749;DHT22;2388;53.582;9.962;2022-12-28T04:07:24;5.40;99.90
4749;DHT22;2388;53.582;9.962;2022-12-28T04:09:50;5.40;99.90
4749;DHT22;2388;53.582;9.962;2022-12-28T04:12:15;5.40;99.90
4749;DHT22;2388;53.582;9.962;2022-12-28T04:14:41;5.40;99.90
4749;DHT22;2388;53.582;9.962;2022-12-28T04:17:06;5.40;99.90
4749;DHT22;2388;53.582;9.962;2022-12-28T04:19:32;5.40;99.90
4749;DHT22;2388;53.582;9.962;2022-12-28T04:21:57;5.30;99.90
4749;DHT22;2388;53.582;9.962;2022-12-28T04:24:23;5.40;99.90
4749;DHT22;2388;53.582;9.962;2022-12-28T04:26:48;5.30;99.90
4749;DHT22;2388;53.582;9.962;2022-12-28T04:29:14;5.30;99.90
4749;DHT22;2388;53.582;9.962;2022-12-28T04:31:39;5.30;99.90
4749;DHT22;2388;53.582;9.962;2022-12-28T04:34:05;5.30;99.90
4749;DHT22;2388;53.582;9.962;2022-12-28T04:36:31;5.30;99.90
4749;DHT22;2388;53.582;9.962;2022-12-28T04:38:57;5.30;99.90
4749;DHT22;2388;53.582;9.962;2022-12-28T04:41:23;5.30;99.90
4749;DHT22;2388;53.582;9.962;2022-12-28T04:43:48;5.30;99.90
4749;DHT22;2388;53.582;9.962;2022-12-28T04:46:15;5.30;99.90
4749;DHT22;2388;53.582;9.962;2022-12-28T04:48:41;5.30;99.90
4749;DHT22;2388;53.582;9.962;2022-12-28T04:51:18;5.30;99.90
4749;DHT22;2388;53.582;9.962;2022-12-28T04:53:43;5.30;99.90
4749;DHT22;2388;53.582;9.962;2022-12-28T04:56:10;5.20;99.90
4749;DHT22;2388;53.582;9.962;2022-12-28T04:58:36;5.30;99.90
4749;DHT22;2388;53.582;9.962;2022-12-28T05:01:07;5.30;99.90
4749;DHT22;2388;53.582;9.962;2022-12-28T05:03:34;5.20;99.90
4749;DHT22;2388;53.582;9.962;2022-12-28T05:06:09;5.20;99.90
4749;DHT22;2388;53.582;9.962;2022-12-28T05:08:36;5.20;99.90
4749;DHT22;2388;53.582;9.962;2022-12-28T05:11:04;5.20;99.90
4749;DHT22;2388;53.582;9.962;2022-12-28T05:13:30;5.20;99.90
4749;DHT22;2388;53.582;9.962;2022-12-28T05:16:00;5.20;99.90
4749;DHT22;2388;53.582;9.962;2022-12-28T05:18:26;5.20;99.90
4749;DHT22;2388;53.582;9.962;2022-12-28T05:21:04;5.20;99.90
4749;DHT22;2388;53.582;9.962;2022-12-28T05:23:31;5.20;99.90
4749;DHT22;2388;53.582;9.962;2022-12-28T05:25:57;5.20;99.90
4749;DHT22;2388;53.582;9.962;2022-12-28T05:28:23;5.20;99.90
4749;DHT22;2388;53.582;9.962;2022-12-28T05:30:49;5.20;99.90
4749;DHT22;2388;53.582;9.962;2022-12-28T05:33:15;5.20;99.90
4749;DHT22;2388;53.582;9.962;2022-12-28T05:35:40;5.20;99.90
4749;DHT22;2388;53.582;9.962;2022-12-28T05:38:06;5.20;99.90
4749;DHT22;2388;53.582;9.962;2022-12-28T05:40:32;5.20;99.90
4749;DHT22;2388;53.582;9.962;2022-12-28T05:42:58;5.20;99.90
4749;DHT22;2388;53.582;9.962;2022-12-28T05:45:24;5.30;99.90
4749;DHT22;2388;53.582;9.962;2022-12-28T05:47:49;5.20;99.90
4749;DHT22;2388;53.582;9.962;2022-12-28T05:50:15;5.30;99.90
4749;DHT22;2388;53.582;9.962;2022-12-28T05:52:40;5.30;99.90
4749;DHT22;2388;53.582;9.962;2022-12-28T05:55:06;5.30;99.90
4749;DHT22;2388;53.582;9.962;2022-12-28T05:57:31;5.30;99.90
4749;DHT22;2388;53.582;9.962;2022-12-28T05:59:57;5.30;99.90
4749;DHT22;2388;53.582;9.962;2022-12-28T06:02:22;5.30;99.90
4749;DHT22;2388;53.582;9.962;2022-12-28T06:04:52;5.30;99.90
4749;DHT22;2388;53.582;9.962;2022-12-28T06:07:17;5.30;99.90
4749;DHT22;2388;53.582;9.962;2022-12-28T06:09:43;5.30;99.90
4749;DHT22;2388;53.582;9.962;2022-12-28T06:12:08;5.30;99.90
4749;DHT22;2388;53.582;9.962;2022-12-28T06:14:34;5.40;99.90
4749;DHT22;2388;53.582;9.962;2022-12-28T06:16:59;5.40;99.90
4749;DHT22;2388;53.582;9.962;2022-12-28T06:19:25;5.40;99.90
4749;DHT22;2388;53.582;9.962;2022-12-28T06:21:50;5.40;99.90
4749;DHT22;2388;53.582;9.962;2022-12-28T06:24:16;5.40;99.90
4749;DHT22;2388;53.582;9.962;2022-12-28T06:26:43;5.40;99.90
4749;DHT22;2388;53.582;9.962;2022-12-28T06:29:08;5.40;99.90
4749;DHT22;2388;53.582;9.962;2022-12-28T06:31:37;5.40;99.90
4749;DHT22;2388;53.582;9.962;2022-12-28T06:34:04;5.50;99.90
4749;DHT22;2388;53.582;9.962;2022-12-28T06:36:37;5.50;99.90
4749;DHT22;2388;53.582;9.962;2022-12-28T06:39:05;5.50;99.90
4749;DHT22;2388;53.582;9.962;2022-12-28T06:41:31;5.50;99.90
4749;DHT22;2388;53.582;9.962;2022-12-28T06:43:57;5.60;99.90
4749;DHT22;2388;53.582;9.962;2022-12-28T06:46:25;5.60;99.90
4749;DHT22;2388;53.582;9.962;2022-12-28T06:48:51;5.60;99.90
4749;DHT22;2388;53.582;9.962;2022-12-28T06:51:21;5.70;99.90
4749;DHT22;2388;53.582;9.962;2022-12-28T06:53:49;5.70;99.90
4749;DHT22;2388;53.582;9.962;2022-12-28T06:56:17;5.60;99.90
4749;DHT22;2388;53.582;9.962;2022-12-28T06:58:43;5.70;99.90
4749;DHT22;2388;53.582;9.962;2022-12-28T07:01:19;5.70;99.90
4749;DHT22;2388;53.582;9.962;2022-12-28T07:03:46;5.70;99.90
4749;DHT22;2388;53.582;9.962;2022-12-28T07:06:14;5.80;99.90
4749;DHT22;2388;53.582;9.962;2022-12-28T07:08:41;5.80;99.90
4749;DHT22;2388;53.582;9.962;2022-12-28T07:11:14;5.80;99.90
4749;DHT22;2388;53.582;9.962;2022-12-28T07:13:40;5.80;99.90
4749;DHT22;2388;53.582;9.962;2022-12-28T07:16:10;5.90;99.90
4749;DHT22;2388;53.582;9.962;2022-12-28T07:18:35;5.90;99.90
4749;DHT22;2388;53.582;9.962;2022-12-28T07:21:08;5.90;99.90
4749;DHT22;2388;53.582;9.962;2022-12-28T07:23:35;5.90;99.90
4749;DHT22;2388;53.582;9.962;2022-12-28T07:26:05;5.80;99.90
4749;DHT22;2388;53.582;9.962;2022-12-28T07:28:31;5.90;99.90
4749;DHT22;2388;53.582;9.962;2022-12-28T07:30:57;5.90;99.90
4749;DHT22;2388;53.582;9.962;2022-12-28T07:33:22;5.90;99.90
4749;DHT22;2388;53.582;9.962;2022-12-28T07:35:48;5.90;99.90
4749;DHT22;2388;53.582;9.962;2022-12-28T07:38:13;5.90;99.90
4749;DHT22;2388;53.582;9.962;2022-12-28T07:40:39;6.00;99.90
4749;DHT22;2388;53.582;9.962;2022-12-28T07:43:04;6.00;99.90
4749;DHT22;2388;53.582;9.962;2022-12-28T07:45:30;6.00;99.90
4749;DHT22;2388;53.582;9.962;2022-12-28T07:47:56;6.00;99.90
4749;DHT22;2388;53.582;9.962;2022-12-28T07:50:21;6.00;99.90
4749;DHT22;2388;53.582;9.962;2022-12-28T07:52:47;6.10;99.90
4749;DHT22;2388;53.582;9.962;2022-12-28T07:55:12;6.10;99.90
4749;DHT22;2388;53.582;9.962;2022-12-28T07:57:38;6.20;99.90
4749;DHT22;2388;53.582;9.962;2022-12-28T08:00:04;6.20;99.90
4749;DHT22;2388;53.582;9.962;2022-12-28T08:02:31;6.20;99.90
4749;DHT22;2388;53.582;9.962;2022-12-28T08:04:57;6.20;99.90
4749;DHT22;2388;53.582;9.962;2022-12-28T08:07:22;6.20;99.90
4749;DHT22;2388;53.582;9.962;2022-12-28T08:09:48;6.30;99.90
4749;DHT22;2388;53.582;9.962;2022-12-28T08:12:13;6.30;99.90
4749;DHT22;2388;53.582;9.962;2022-12-28T08:14:39;6.30;99.90
4749;DHT22;2388;53.582;9.962;2022-12-28T08:17:04;6.30;99.90
4749;DHT22;2388;53.582;9.962;2022-12-28T08:19:30;6.40;99.90
4749;DHT22;2388;53.582;9.962;2022-12-28T08:21:55;6.40;99.90
4749;DHT22;2388;53.582;9.962;2022-12-28T08:24:21;6.40;99.90
4749;DHT22;2388;53.582;9.962;2022-12-28T08:26:47;6.40;99.90
4749;DHT22;2388;53.582;9.962;2022-12-28T08:29:15;6.50;99.90
4749;DHT22;2388;53.582;9.962;2022-12-28T08:31:44;6.50;99.90
4749;DHT22;2388;53.582;9.962;2022-12-28T08:34:13;6.50;99.90
4749;DHT22;2388;53.582;9.962;2022-12-28T08:36:39;6.50;99.90
4749;DHT22;2388;53.582;9.962;2022-12-28T08:39:05;6.60;99.90
4749;DHT22;2388;53.582;9.962;2022-12-28T08:41:31;6.60;99.90
4749;DHT22;2388;53.582;9.962;2022-12-28T08:43:56;6.60;99.90
4749;DHT22;2388;53.582;9.962;2022-12-28T08:46:27;6.60;99.90
4749;DHT22;2388;53.582;9.962;2022-12-28T08:48:55;6.60;99.90
4749;DHT22;2388;53.582;9.962;2022-12-28T08:51:31;6.70;99.90
4749;DHT22;2388;53.582;9.962;2022-12-28T08:53:56;6.70;99.90
4749;DHT22;2388;53.582;9.962;2022-12-28T08:56:24;6.80;99.90
4749;DHT22;2388;53.582;9.962;2022-12-28T08:58:52;6.80;99.90
4749;DHT22;2388;53.582;9.962;2022-12-28T09:01:29;6.80;99.90
4749;DHT22;2388;53.582;9.962;2022-12-28T09:03:57;6.80;99.90
4749;DHT22;2388;53.582;9.962;2022-12-28T09:06:25;6.90;99.90
4749;DHT22;2388;53.582;9.962;2022-12-28T09:08:53;6.90;99.90
4749;DHT22;2388;53.582;9.962;2022-12-28T09:11:19;6.90;99.90
4749;DHT22;2388;53.582;9.962;2022-12-28T09:13:45;6.90;99.90
4749;DHT22;2388;53.582;9.962;2022-12-28T09:16:13;7.00;99.90
4749;DHT22;2388;53.582;9.962;2022-12-28T09:18:40;7.00;99.90
4749;DHT22;2388;53.582;9.962;2022-12-28T09:21:11;7.10;99.90
4749;DHT22;2388;53.582;9.962;2022-12-28T09:23:41;7.10;99.90
4749;DHT22;2388;53.582;9.962;2022-12-28T09:26:15;7.10;99.90
4749;DHT22;2388;53.582;9.962;2022-12-28T09:28:49;7.20;99.90
4749;DHT22;2388;53.582;9.962;2022-12-28T09:31:15;7.20;99.90
4749;DHT22;2388;53.582;9.962;2022-12-28T09:33:41;7.20;99.90
4749;DHT22;2388;53.582;9.962;2022-12-28T09:36:34;7.20;99.90
4749;DHT22;2388;53.582;9.962;2022-12-28T09:39:03;7.30;99.90
4749;DHT22;2388;53.582;9.962;2022-12-28T09:41:38;7.30;99.90
4749;DHT22;2388;53.582;9.962;2022-12-28T09:46:46;7.40;99.90
4749;DHT22;2388;53.582;9.962;2022-12-28T09:49:16;7.40;99.90
4749;DHT22;2388;53.582;9.962;2022-12-28T09:51:59;7.40;99.90
4749;DHT22;2388;53.582;9.962;2022-12-28T09:54:28;7.50;99.90
4749;DHT22;2388;53.582;9.962;2022-12-28T09:56:54;7.50;99.90
4749;DHT22;2388;53.582;9.962;2022-12-28T09:59:23;7.50;99.90
4749;DHT22;2388;53.582;9.962;2022-12-28T10:01:54;7.60;99.90
4749;DHT22;2388;53.582;9.962;2022-12-28T10:04:21;7.60;99.90
4749;DHT22;2388;53.582;9.962;2022-12-28T10:06:47;7.60;99.90
4749;DHT22;2388;53.582;9.962;2022-12-28T10:09:21;7.60;99.90
4749;DHT22;2388;53.582;9.962;2022-12-28T10:11:50;7.60;99.90
4749;DHT22;2388;53.582;9.962;2022-12-28T10:14:24;7.70;99.90
4749;DHT22;2388;53.582;9.962;2022-12-28T10:16:51;7.70;99.90
4749;DHT22;2388;53.582;9.962;2022-12-28T10:19:23;7.70;99.90
4749;DHT22;2388;53.582;9.962;2022-12-28T10:22:00;7.70;99.90
4749;DHT22;2388;53.582;9.962;2022-12-28T10:24:27;7.80;99.90
4749;DHT22;2388;53.582;9.962;2022-12-28T10:26:55;7.70;99.90
4749;DHT22;2388;53.582;9.962;2022-12-28T10:29:22;7.80;99.90
4749;DHT22;2388;53.582;9.962;2022-12-28T10:32:17;7.80;99.90
4749;DHT22;2388;53.582;9.962;2022-12-28T10:34:58;7.80;99.90
4749;DHT22;2388;53.582;9.962;2022-12-28T10:37:29;7.80;99.90
4749;DHT22;2388;53.582;9.962;2022-12-28T10:40:13;7.80;99.90
4749;DHT22;2388;53.582;9.962;2022-12-28T10:42:43;7.80;99.90
4749;DHT22;2388;53.582;9.962;2022-12-28T10:47:59;7.90;99.90
4749;DHT22;2388;53.582;9.962;2022-12-28T10:53:30;7.90;99.90
4749;DHT22;2388;53.582;9.962;2022-12-28T10:56:02;7.90;99.90
4749;DHT22;2388;53.582;9.962;2022-12-28T10:58:28;7.90;99.90
4749;DHT22;2388;53.582;9.962;2022-12-28T11:00:59;8.00;99.90
4749;DHT22;2388;53.582;9.962;2022-12-28T11:03:31;8.00;99.90
4749;DHT22;2388;53.582;9.962;2022-12-28T11:06:19;8.10;99.90
4749;DHT22;2388;53.582;9.962;2022-12-28T11:09:12;8.20;99.90
4749;DHT22;2388;53.582;9.962;2022-12-28T11:11:38;8.30;99.90
4749;DHT22;2388;53.582;9.962;2022-12-28T11:16:36;8.40;99.90
4749;DHT22;2388;53.582;9.962;2022-12-28T11:19:02;8.40;99.90
4749;DHT22;2388;53.582;9.962;2022-12-28T11:21:28;8.40;99.90
4749;DHT22;2388;53.582;9.962;2022-12-28T11:23:53;8.40;99.90
4749;DHT22;2388;53.582;9.962;2022-12-28T11:26:19;8.40;99.90
4749;DHT22;2388;53.582;9.962;2022-12-28T11:28:48;8.40;99.90
4749;DHT22;2388;53.582;9.962;2022-12-28T11:31:35;8.40;99.90
4749;DHT22;2388;53.582;9.962;2022-12-28T11:34:04;8.40;99.90
4749;DHT22;2388;53.582;9.962;2022-12-28T11:36:36;8.40;99.90
4749;DHT22;2388;53.582;9.962;2022-12-28T11:41:54;8.20;99.90
4749;DHT22;2388;53.582;9.962;2022-12-28T11:49:40;8.20;99.90
4749;DHT22;2388;53.582;9.962;2022-12-28T11:55:03;8.20;99.90
4749;DHT22;2388;53.582;9.962;2022-12-28T11:57:45;8.20;99.90
4749;DHT22;2388;53.582;9.962;2022-12-28T12:02:52;8.20;99.90
4749;DHT22;2388;53.582;9.962;2022-12-28T12:10:48;8.20;99.90
4749;DHT22;2388;53.582;9.962;2022-12-28T12:15:58;8.20;99.90
4749;DHT22;2388;53.582;9.962;2022-12-28T12:18:27;8.30;99.90
4749;DHT22;2388;53.582;9.962;2022-12-28T12:21:01;8.30;99.90
4749;DHT22;2388;53.582;9.962;2022-12-28T12:23:41;8.30;99.90
4749;DHT22;2388;53.582;9.962;2022-12-28T12:26:26;8.30;99.90
4749;DHT22;2388;53.582;9.962;2022-12-28T12:31:42;8.30;99.90
4749;DHT22;2388;53.582;9.962;2022-12-28T12:34:32;8.30;99.90
4749;DHT22;2388;53.582;9.962;2022-12-28T12:42:36;8.30;99.90
4749;DHT22;2388;53.582;9.962;2022-12-28T12:51:15;8.30;99.90
4749;DHT22;2388;53.582;9.962;2022-12-28T12:53:50;8.30;99.90
4749;DHT22;2388;53.582;9.962;2022-12-28T12:56:40;8.30;99.90
4749;DHT22;2388;53.582;9.962;2022-12-28T13:02:18;8.30;99.90
4749;DHT22;2388;53.582;9.962;2022-12-28T13:04:47;8.30;99.90
4749;DHT22;2388;53.582;9.962;2022-12-28T13:07:21;8.30;99.90
4749;DHT22;2388;53.582;9.962;2022-12-28T13:09:49;8.30;99.90
4749;DHT22;2388;53.582;9.962;2022-12-28T13:12:17;8.30;99.90
4749;DHT22;2388;53.582;9.962;2022-12-28T13:14:45;8.40;99.90
4749;DHT22;2388;53.582;9.962;2022-12-28T13:17:17;8.40;99.90
4749;DHT22;2388;53.582;9.962;2022-12-28T13:19:43;8.40;99.90
4749;DHT22;2388;53.582;9.962;2022-12-28T13:22:30;8.40;99.90
4749;DHT22;2388;53.582;9.962;2022-12-28T13:24:56;8.40;99.90
4749;DHT22;2388;53.582;9.962;2022-12-28T13:27:25;8.40;99.90
4749;DHT22;2388;53.582;9.962;2022-12-28T13:29:52;8.40;99.90
4749;DHT22;2388;53.582;9.962;2022-12-28T13:32:34;8.40;99.90
4749;DHT22;2388;53.582;9.962;2022-12-28T13:35:00;8.40;99.90
4749;DHT22;2388;53.582;9.962;2022-12-28T13:37:26;8.40;99.90
4749;DHT22;2388;53.582;9.962;2022-12-28T13:40:09;8.40;99.90
4749;DHT22;2388;53.582;9.962;2022-12-28T13:43:00;8.40;99.90
4749;DHT22;2388;53.582;9.962;2022-12-28T13:45:28;8.40;99.90
4749;DHT22;2388;53.582;9.962;2022-12-28T13:47:54;8.40;99.90
4749;DHT22;2388;53.582;9.962;2022-12-28T13:50:29;8.50;99.90
4749;DHT22;2388;53.582;9.962;2022-12-28T13:53:02;8.50;99.90
4749;DHT22;2388;53.582;9.962;2022-12-28T13:56:06;8.40;99.90
4749;DHT22;2388;53.582;9.962;2022-12-28T13:58:36;8.50;99.90
4749;DHT22;2388;53.582;9.962;2022-12-28T14:01:06;8.50;99.90
4749;DHT22;2388;53.582;9.962;2022-12-28T14:03:36;8.50;99.90
4749;DHT22;2388;53.582;9.962;2022-12-28T14:06:02;8.50;99.90
4749;DHT22;2388;53.582;9.962;2022-12-28T14:08:32;8.50;99.90
4749;DHT22;2388;53.582;9.962;2022-12-28T14:10:59;8.50;99.90
4749;DHT22;2388;53.582;9.962;2022-12-28T14:13:25;8.50;99.90
4749;DHT22;2388;53.582;9.962;2022-12-28T14:15:51;8.50;99.90
4749;DHT22;2388;53.582;9.962;2022-12-28T14:18:18;8.50;99.90
4749;DHT22;2388;53.582;9.962;2022-12-28T14:20:49;8.50;99.90
4749;DHT22;2388;53.582;9.962;2022-12-28T14:23:25;8.50;99.90
4749;DHT22;2388;53.582;9.962;2022-12-28T14:25:53;8.50;99.90
4749;DHT22;2388;53.582;9.962;2022-12-28T14:28:30;8.40;99.90
4749;DHT22;2388;53.582;9.962;2022-12-28T14:30:58;8.50;99.90
4749;DHT22;2388;53.582;9.962;2022-12-28T14:33:26;8.50;99.90
4749;DHT22;2388;53.582;9.962;2022-12-28T14:35:55;8.50;99.90
4749;DHT22;2388;53.582;9.962;2022-12-28T14:38:24;8.50;99.90
4749;DHT22;2388;53.582;9.962;2022-12-28T14:40:57;8.50;99.90
4749;DHT22;2388;53.582;9.962;2022-12-28T14:43:28;8.40;99.90
4749;DHT22;2388;53.582;9.962;2022-12-28T14:45:55;8.50;99.90
4749;DHT22;2388;53.582;9.962;2022-12-28T14:48:23;8.50;99.90
4749;DHT22;2388;53.582;9.962;2022-12-28T14:53:39;8.50;99.90
4749;DHT22;2388;53.582;9.962;2022-12-28T14:56:11;8.40;99.90
4749;DHT22;2388;53.582;9.962;2022-12-28T14:58:54;8.40;99.90
4749;DHT22;2388;53.582;9.962;2022-12-28T15:01:21;8.50;99.90
4749;DHT22;2388;53.582;9.962;2022-12-28T15:03:57;8.50;99.90
4749;DHT22;2388;53.582;9.962;2022-12-28T15:06:28;8.50;99.90
4749;DHT22;2388;53.582;9.962;2022-12-28T15:08:55;8.40;99.90
4749;DHT22;2388;53.582;9.962;2022-12-28T15:11:23;8.40;99.90
4749;DHT22;2388;53.582;9.962;2022-12-28T15:13:50;8.50;99.90
4749;DHT22;2388;53.582;9.962;2022-12-28T15:16:17;8.50;99.90
4749;DHT22;2388;53.582;9.962;2022-12-28T15:18:43;8.50;99.90
4749;DHT22;2388;53.582;9.962;2022-12-28T15:21:13;8.40;99.90
4749;DHT22;2388;53.582;9.962;2022-12-28T15:23:39;8.40;99.90
4749;DHT22;2388;53.582;9.962;2022-12-28T15:26:10;8.40;99.90
4749;DHT22;2388;53.582;9.962;2022-12-28T15:28:36;8.50;99.90
4749;DHT22;2388;53.582;9.962;2022-12-28T15:31:11;8.40;99.90
4749;DHT22;2388;53.582;9.962;2022-12-28T15:33:37;8.50;99.90
4749;DHT22;2388;53.582;9.962;2022-12-28T15:36:09;8.50;99.90
4749;DHT22;2388;53.582;9.962;2022-12-28T15:38:35;8.50;99.90
4749;DHT22;2388;53.582;9.962;2022-12-28T15:41:00;8.50;99.90
4749;DHT22;2388;53.582;9.962;2022-12-28T15:43:26;8.50;99.90
4749;DHT22;2388;53.582;9.962;2022-12-28T15:45:53;8.50;99.90
4749;DHT22;2388;53.582;9.962;2022-12-28T15:48:18;8.50;99.90
4749;DHT22;2388;53.582;9.962;2022-12-28T15:50:44;8.50;99.90
4749;DHT22;2388;53.582;9.962;2022-12-28T15:53:09;8.50;99.90
4749;DHT22;2388;53.582;9.962;2022-12-28T15:55:35;8.50;99.90
4749;DHT22;2388;53.582;9.962;2022-12-28T15:58:00;8.50;99.90
4749;DHT22;2388;53.582;9.962;2022-12-28T16:00:26;8.50;99.90
4749;DHT22;2388;53.582;9.962;2022-12-28T16:02:51;8.50;99.90
4749;DHT22;2388;53.582;9.962;2022-12-28T16:05:18;8.50;99.90
4749;DHT22;2388;53.582;9.962;2022-12-28T16:07:43;8.50;99.90
4749;DHT22;2388;53.582;9.962;2022-12-28T16:10:09;8.50;99.90
4749;DHT22;2388;53.582;9.962;2022-12-28T16:12:34;8.50;99.90
4749;DHT22;2388;53.582;9.962;2022-12-28T16:15:00;8.50;99.90
4749;DHT22;2388;53.582;9.962;2022-12-28T16:17:25;8.50;99.90
4749;DHT22;2388;53.582;9.962;2022-12-28T16:19:51;8.50;99.90
4749;DHT22;2388;53.582;9.962;2022-12-28T16:22:16;8.50;99.90
4749;DHT22;2388;53.582;9.962;2022-12-28T16:24:42;8.60;99.90
4749;DHT22;2388;53.582;9.962;2022-12-28T16:27:07;8.50;99.90
4749;DHT22;2388;53.582;9.962;2022-12-28T16:29:33;8.60;99.90
4749;DHT22;2388;53.582;9.962;2022-12-28T16:31:59;8.60;99.90
4749;DHT22;2388;53.582;9.962;2022-12-28T16:34:25;8.60;99.90
4749;DHT22;2388;53.582;9.962;2022-12-28T16:36:52;8.60;99.90
4749;DHT22;2388;53.582;9.962;2022-12-28T16:39:21;8.60;99.90
4749;DHT22;2388;53.582;9.962;2022-12-28T16:41:47;8.60;99.90
4749;DHT22;2388;53.582;9.962;2022-12-28T16:44:22;8.60;99.90
4749;DHT22;2388;53.582;9.962;2022-12-28T16:46:49;8.50;99.90
4749;DHT22;2388;53.582;9.962;2022-12-28T16:49:15;8.60;99.90
4749;DHT22;2388;53.582;9.962;2022-12-28T16:51:43;8.50;99.90
4749;DHT22;2388;53.582;9.962;2022-12-28T16:54:16;8.50;99.90
4749;DHT22;2388;53.582;9.962;2022-12-28T16:56:44;8.50;99.90
4749;DHT22;2388;53.582;9.962;2022-12-28T16:59:15;8.50;99.90
4749;DHT22;2388;53.582;9.962;2022-12-28T17:01:41;8.50;99.90
4749;DHT22;2388;53.582;9.962;2022-12-28T17:04:07;8.50;99.90
4749;DHT22;2388;53.582;9.962;2022-12-28T17:06:33;8.50;99.90
4749;DHT22;2388;53.582;9.962;2022-12-28T17:09:02;8.40;99.90
4749;DHT22;2388;53.582;9.962;2022-12-28T17:11:28;8.50;99.90
4749;DHT22;2388;53.582;9.962;2022-12-28T17:14:05;8.40;99.90
4749;DHT22;2388;53.582;9.962;2022-12-28T17:16:31;8.40;99.90
4749;DHT22;2388;53.582;9.962;2022-12-28T17:18:58;8.40;99.90
4749;DHT22;2388;53.582;9.962;2022-12-28T17:21:24;8.40;99.90
4749;DHT22;2388;53.582;9.962;2022-12-28T17:23:50;8.40;99.90
4749;DHT22;2388;53.582;9.962;2022-12-28T17:26:15;8.40;99.90
4749;DHT22;2388;53.582;9.962;2022-12-28T17:28:41;8.40;99.90
4749;DHT22;2388;53.582;9.962;2022-12-28T17:31:12;8.40;99.90
4749;DHT22;2388;53.582;9.962;2022-12-28T17:33:39;8.40;99.90
4749;DHT22;2388;53.582;9.962;2022-12-28T17:36:08;8.40;99.90
4749;DHT22;2388;53.582;9.962;2022-12-28T17:38:33;8.40;99.90
4749;DHT22;2388;53.582;9.962;2022-12-28T17:40:59;8.40;99.90
4749;DHT22;2388;53.582;9.962;2022-12-28T17:43:24;8.40;99.90
4749;DHT22;2388;53.582;9.962;2022-12-28T17:45:50;8.40;99.90
4749;DHT22;2388;53.582;9.962;2022-12-28T17:48:15;8.40;99.90
4749;DHT22;2388;53.582;9.962;2022-12-28T17:50:41;8.40;99.90
4749;DHT22;2388;53.582;9.962;2022-12-28T17:53:07;8.40;99.90
4749;DHT22;2388;53.582;9.962;2022-12-28T17:55:34;8.40;99.90
4749;DHT22;2388;53.582;9.962;2022-12-28T17:57:59;8.40;99.90